createdAt,value
2023-03-29T00:09:37.024Z,4.7
2023-03-29T00:28:58.416Z,4.5
2023-03-29T00:48:20.393Z,4.6
2023-03-29T01:07:42.533Z,4.6
2023-03-29T01:27:06.117Z,4.8
2023-03-29T01:46:28.216Z,4.9
2023-03-29T02:05:49.364Z,5
2023-03-29T02:25:12.323Z,5
2023-03-29T02:44:35.098Z,5.1
2023-03-29T03:03:56.206Z,5
2023-03-29T03:23:18.679Z,5.2
2023-03-29T03:42:40.501Z,5.2
2023-03-29T04:02:03.210Z,5.3
2023-03-29T04:21:25.645Z,5.3
2023-03-29T04:40:48.379Z,5.2
2023-03-29T05:00:09.512Z,5.2
2023-03-29T05:19:31.496Z,5.5
2023-03-29T05:38:53.277Z,5.4
2023-03-29T05:58:16.346Z,5.5
2023-03-29T06:17:40.636Z,5.6
2023-03-29T06:37:03.675Z,5.8
2023-03-29T06:56:29.031Z,6.1
2023-03-29T07:15:50.304Z,6.3
2023-03-29T07:35:14.606Z,6.8
2023-03-29T07:54:38.558Z,6.8
2023-03-29T08:14:01.688Z,6.4
2023-03-29T08:33:24.577Z,6.4
2023-03-29T08:52:46.078Z,6.7
2023-03-29T09:12:09.064Z,6.5
2023-03-29T09:31:31.167Z,7.1
2023-03-29T09:50:53.390Z,7
2023-03-29T10:10:14.493Z,7.3
2023-03-29T10:29:35.052Z,7.8
2023-03-29T10:48:57.572Z,7.9
2023-03-29T11:08:20.952Z,7.9
2023-03-29T11:27:45.042Z,8
2023-03-29T11:47:09.699Z,8.3
2023-03-29T12:06:34.716Z,8.8
2023-03-29T12:26:00.456Z,8.7
2023-03-29T12:45:26.116Z,8.8
2023-03-29T13:04:50.930Z,9
2023-03-29T13:24:15.050Z,9.3
2023-03-29T13:43:39.230Z,9.7
2023-03-29T14:03:04.198Z,9.6
2023-03-29T14:22:24.820Z,10
2023-03-29T14:41:48.717Z,9.9
2023-03-29T15:01:12.412Z,9.9
2023-03-29T15:20:36.806Z,10.3
2023-03-29T15:39:59.402Z,9.6
2023-03-29T15:59:21.647Z,9.3
2023-03-29T16:18:43.434Z,9.3
2023-03-29T16:38:05.898Z,9.5
2023-03-29T16:57:28.072Z,9.6
2023-03-29T17:16:48.867Z,9.7
2023-03-29T17:36:10.991Z,9.9
2023-03-29T17:55:32.825Z,9.9
2023-03-29T18:14:55.419Z,10.1
2023-03-29T18:34:16.891Z,10.4
2023-03-29T18:53:39.155Z,10.9
2023-03-29T19:13:01.149Z,11.3
2023-03-29T19:32:22.323Z,11.6
2023-03-29T19:51:42.647Z,12.1
2023-03-29T20:11:06.619Z,12.3
2023-03-29T20:30:28.852Z,12.3
2023-03-29T20:49:50.195Z,12.1
2023-03-29T21:09:09.544Z,12
2023-03-29T21:28:30.827Z,11.7
2023-03-29T21:47:53.530Z,11.7
2023-03-29T22:07:15.630Z,11.5
2023-03-29T22:26:38.056Z,11.3
2023-03-29T22:46:00.929Z,10.9
2023-03-29T23:05:20.285Z,10.7
2023-03-29T23:24:54.510Z,10.4
2023-03-29T23:44:07.240Z,10.3
